createdAt,value
2017-10-17T00:00:24.185Z,77.34
2017-10-17T00:01:34.571Z,77.34
2017-10-17T00:02:45.029Z,77.25
2017-10-17T00:03:56.090Z,77.34
2017-10-17T00:05:06.517Z,77.25
2017-10-17T00:06:16.922Z,77.34
2017-10-17T00:07:27.320Z,77.25
2017-10-17T00:08:37.734Z,77.34
2017-10-17T00:09:47.496Z,77.25
2017-10-17T00:10:57.564Z,77.44
2017-10-17T00:12:09.023Z,77.44
2017-10-17T00:13:19.423Z,77.25
2017-10-17T00:14:29.880Z,77.53
2017-10-17T00:15:39.962Z,77.44
2017-10-17T00:16:50.384Z,77.44
2017-10-17T00:18:00.457Z,77.44
2017-10-17T00:19:10.843Z,77.44
2017-10-17T00:20:21.240Z,77.44
2017-10-17T00:21:30.965Z,77.44
2017-10-17T00:22:41.369Z,77.34
2017-10-17T00:23:51.769Z,77.44
2017-10-17T00:25:02.183Z,77.34
2017-10-17T00:26:12.278Z,77.34
2017-10-17T00:27:22.681Z,77.44
2017-10-17T00:28:32.753Z,77.25
2017-10-17T00:29:43.161Z,77.44
2017-10-17T00:30:53.570Z,77.34
2017-10-17T00:32:03.685Z,77.44
2017-10-17T00:33:13.415Z,77.34
2017-10-17T00:34:23.820Z,77.25
2017-10-17T00:35:34.223Z,77.15
2017-10-17T00:36:44.613Z,77.25
2017-10-17T00:37:55.062Z,77.15
2017-10-17T00:39:05.450Z,77.15
2017-10-17T00:40:16.164Z,77.25
2017-10-17T00:41:25.906Z,77.25
2017-10-17T00:42:36.320Z,77.25
2017-10-17T00:43:46.436Z,77.15
2017-10-17T00:44:56.838Z,77.25
2017-10-17T00:46:06.908Z,77.25
2017-10-17T00:47:17.319Z,77.25
2017-10-17T00:48:27.726Z,77.34
2017-10-17T00:49:38.165Z,77.82
2017-10-17T00:50:48.239Z,77.25
2017-10-17T00:51:58.297Z,77.25
2017-10-17T00:53:08.417Z,77.25
2017-10-17T00:54:18.509Z,77.25
2017-10-17T00:55:28.922Z,77.25
2017-10-17T00:56:38.987Z,77.25
2017-10-17T00:57:49.379Z,77.15
2017-10-17T00:58:59.781Z,77.34
2017-10-17T01:00:10.184Z,77.25
2017-10-17T01:01:20.575Z,77.06
2017-10-17T01:02:30.973Z,77.25
2017-10-17T01:03:41.034Z,77.34
2017-10-17T01:04:50.782Z,77.34
2017-10-17T01:06:00.872Z,77.34
2017-10-17T01:07:10.991Z,77.25
2017-10-17T01:08:21.396Z,77.25
2017-10-17T01:09:31.477Z,77.25
2017-10-17T01:10:41.878Z,77.25
2017-10-17T01:11:52.293Z,77.53
2017-10-17T01:13:02.743Z,77.72
2017-10-17T01:14:12.819Z,77.34
2017-10-17T01:15:23.229Z,77.53
2017-10-17T01:16:33.638Z,77.44
2017-10-17T01:17:44.030Z,77.25
2017-10-17T01:18:54.183Z,77.25
2017-10-17T01:20:04.255Z,77.06
2017-10-17T01:21:14.354Z,77.25
2017-10-17T01:22:24.763Z,77.25
2017-10-17T01:23:34.503Z,77.25
2017-10-17T01:24:44.583Z,77.53
2017-10-17T01:25:54.644Z,77.53
2017-10-17T01:27:05.029Z,77.53
2017-10-17T01:28:15.426Z,77.72
2017-10-17T01:29:25.498Z,77.5
2017-10-17T01:30:35.890Z,77.92
2017-10-17T01:31:45.955Z,77.78
2017-10-17T01:32:55.695Z,77.78
2017-10-17T01:34:05.775Z,77.78
2017-10-17T01:35:16.183Z,77.78
2017-10-17T01:36:26.636Z,77.69
2017-10-17T01:37:37.044Z,77.97
2017-10-17T01:38:47.457Z,77.78
2017-10-17T01:39:57.854Z,77.78
2017-10-17T01:41:08.246Z,77.87
2017-10-17T01:42:18.638Z,77.78
2017-10-17T01:43:28.717Z,78.07
2017-10-17T01:44:38.792Z,77.97
2017-10-17T01:45:48.884Z,77.59
2017-10-17T01:46:59.280Z,77.4
2017-10-17T01:48:09.738Z,77.69
2017-10-17T01:49:20.168Z,77.21
2017-10-17T01:50:30.565Z,77.4
2017-10-17T01:51:40.634Z,77.4
2017-10-17T01:52:51.039Z,77.01
2017-10-17T01:54:01.115Z,77.3
2017-10-17T01:55:11.537Z,77.21
2017-10-17T01:56:21.944Z,77.21
2017-10-17T01:57:32.035Z,77.4
2017-10-17T01:58:42.428Z,77.4
2017-10-17T01:59:52.866Z,77.4
2017-10-17T02:01:03.275Z,77.3
2017-10-17T02:02:13.671Z,77.59
2017-10-17T02:03:23.405Z,77.59
2017-10-17T02:04:33.803Z,77.4
2017-10-17T02:05:44.259Z,77.4
2017-10-17T02:06:54.660Z,77.11
2017-10-17T02:08:04.735Z,77.5
2017-10-17T02:09:15.139Z,77.01
2017-10-17T02:10:25.210Z,77.21
2017-10-17T02:11:35.326Z,76.92
2017-10-17T02:12:45.708Z,76.92
2017-10-17T02:13:56.104Z,76.92
2017-10-17T02:15:06.503Z,76.92
2017-10-17T02:16:16.901Z,77.25
2017-10-17T02:17:27.345Z,76.77
2017-10-17T02:18:37.757Z,76.86
2017-10-17T02:19:48.163Z,76.77
2017-10-17T02:20:58.585Z,77.06
2017-10-17T02:22:08.997Z,77.06
2017-10-17T02:23:19.064Z,77.15
2017-10-17T02:24:28.806Z,76.96
2017-10-17T02:25:38.864Z,77.15
2017-10-17T02:26:49.264Z,77.15
2017-10-17T02:27:59.650Z,77.25
2017-10-17T02:29:09.764Z,77.06
2017-10-17T02:30:20.165Z,77.63
2017-10-17T02:31:30.257Z,77.53
2017-10-17T02:32:40.658Z,77.44
2017-10-17T02:33:51.069Z,77.44
2017-10-17T02:35:01.184Z,77.34
2017-10-17T02:36:11.255Z,77.44
2017-10-17T02:37:21.649Z,77.53
2017-10-17T02:38:32.052Z,77.53
2017-10-17T02:39:42.130Z,77.44
2017-10-17T02:40:52.590Z,77.25
2017-10-17T02:42:02.677Z,77.44
2017-10-17T02:43:13.079Z,77.25
2017-10-17T02:44:23.162Z,77.25
2017-10-17T02:45:33.572Z,77.15
2017-10-17T02:46:43.969Z,77.53
2017-10-17T02:47:54.072Z,77.63
2017-10-17T02:49:04.480Z,77.53
2017-10-17T02:50:14.565Z,77.63
2017-10-17T02:51:24.963Z,77.34
2017-10-17T02:52:35.413Z,77.63
2017-10-17T02:53:45.475Z,77.63
2017-10-17T02:54:55.543Z,77.44
2017-10-17T02:56:05.942Z,77.72
2017-10-17T02:57:15.719Z,77.82
2017-10-17T02:58:26.111Z,77.82
2017-10-17T02:59:36.543Z,77.59
2017-10-17T03:00:46.926Z,77.97
2017-10-17T03:01:57.346Z,77.87
2017-10-17T03:33:58.151Z,73.77
2017-10-17T03:35:08.223Z,74.82
2017-10-17T03:36:18.636Z,75.93
2017-10-17T03:37:29.049Z,76.64
2017-10-17T03:38:39.445Z,77.49
2017-10-17T03:39:49.898Z,77.69
2017-10-17T03:40:59.966Z,78.06
2017-10-17T03:42:10.367Z,77.87
2017-10-17T03:43:20.758Z,78.35
2017-10-17T03:44:31.147Z,78.2
2017-10-17T03:45:41.279Z,78.1
2017-10-17T03:46:51.708Z,78.2
2017-10-17T03:48:02.113Z,78.1
2017-10-17T03:49:12.557Z,78.3
2017-10-17T03:50:22.958Z,78.52
2017-10-17T03:51:33.352Z,78.52
2017-10-17T03:52:43.403Z,77.76
2017-10-17T03:53:53.797Z,77.76
2017-10-17T03:55:03.877Z,77.89
2017-10-17T03:56:14.285Z,78.28
2017-10-17T03:57:24.686Z,77.89
2017-10-17T03:58:35.090Z,78.18
2017-10-17T03:59:45.159Z,78.09
2017-10-17T04:00:55.551Z,77.74
2017-10-17T04:02:05.950Z,78.13
2017-10-17T04:03:16.398Z,77.84
2017-10-17T04:04:26.463Z,77.84
2017-10-17T04:05:36.534Z,77.55
2017-10-17T04:06:46.937Z,77.74
2017-10-17T04:07:57.333Z,77.45
2017-10-17T04:09:07.798Z,77.26
2017-10-17T04:10:18.217Z,77.17
2017-10-17T04:11:28.626Z,76.98
2017-10-17T04:12:38.375Z,77.21
2017-10-17T04:13:48.792Z,77.17
2017-10-17T04:14:58.922Z,77.59
2017-10-17T04:16:08.981Z,77.59
2017-10-17T04:17:19.051Z,77.5
2017-10-17T04:18:29.462Z,78.07
2017-10-17T04:19:39.868Z,77.74
2017-10-17T04:20:50.288Z,78.07
2017-10-17T04:22:00.357Z,77.69
2017-10-17T04:23:10.755Z,77.87
2017-10-17T04:24:20.816Z,77.59
2017-10-17T04:25:30.880Z,77.69
2017-10-17T04:26:41.282Z,77.4
2017-10-17T04:27:51.688Z,77.5
2017-10-17T04:29:01.742Z,77.21
2017-10-17T04:30:11.475Z,77.21
2017-10-17T04:31:21.543Z,77.4
2017-10-17T04:32:31.359Z,77.78
2017-10-17T04:33:41.761Z,77.21
2017-10-17T04:34:52.169Z,77.3
2017-10-17T04:36:02.587Z,77.4
2017-10-17T04:37:12.986Z,77.3
2017-10-17T04:38:23.439Z,77.59
2017-10-17T04:39:33.507Z,77.21
2017-10-17T04:40:43.919Z,77.21
2017-10-17T04:41:54.003Z,77.21
2017-10-17T04:43:03.726Z,77.21
2017-10-17T04:44:14.168Z,77.21
2017-10-17T04:45:24.239Z,77.17
2017-10-17T04:46:34.297Z,77.21
2017-10-17T04:47:44.678Z,77.21
2017-10-17T04:48:55.064Z,77.21
2017-10-17T04:50:05.149Z,77.21
2017-10-17T04:51:15.547Z,77.21
2017-10-17T04:52:25.955Z,76.98
2017-10-17T04:53:36.346Z,76.98
2017-10-17T04:54:46.412Z,77.17
2017-10-17T04:55:56.872Z,77.65
2017-10-17T04:57:07.274Z,77.45
2017-10-17T04:58:17.336Z,77.17
2017-10-17T04:59:27.728Z,77.17
2017-10-17T05:00:37.788Z,77.08
2017-10-17T05:01:48.283Z,77.17
2017-10-17T05:02:58.349Z,77.17
2017-10-17T05:04:08.746Z,77.17
2017-10-17T05:05:19.143Z,77.11
2017-10-17T05:06:29.212Z,77.08
2017-10-17T05:07:39.287Z,77.26
2017-10-17T05:08:49.692Z,77.21
2017-10-17T05:09:59.809Z,77.4
2017-10-17T05:11:10.200Z,77.5
2017-10-17T05:12:20.609Z,77.21
2017-10-17T05:13:31.017Z,77.4
2017-10-17T05:14:41.418Z,77.4
2017-10-17T05:15:51.828Z,77.01
2017-10-17T05:17:02.238Z,77.4
2017-10-17T05:18:12.322Z,77.4
2017-10-17T05:19:22.727Z,77.4
2017-10-17T05:20:33.122Z,77.11
2017-10-17T05:21:43.561Z,77.01
2017-10-17T05:22:53.964Z,77.01
2017-10-17T05:24:04.027Z,77.01
2017-10-17T05:25:14.493Z,77.11
2017-10-17T05:26:24.571Z,77.21
2017-10-17T05:27:34.642Z,77.01
2017-10-17T05:28:44.710Z,76.92
2017-10-17T05:29:55.116Z,77.15
2017-10-17T05:31:05.573Z,76.96
2017-10-17T05:32:15.964Z,77.01
2017-10-17T05:33:26.341Z,77.21
2017-10-17T05:34:36.414Z,77.01
2017-10-17T05:35:46.821Z,77.25
2017-10-17T05:36:57.212Z,77.15
2017-10-17T05:38:07.311Z,77.4
2017-10-17T05:39:18.298Z,77.06
2017-10-17T05:40:28.700Z,77.44
2017-10-17T05:41:39.085Z,77.15
2017-10-17T05:42:49.150Z,77.25
2017-10-17T05:43:59.538Z,77.11
2017-10-17T05:45:09.943Z,77.06
2017-10-17T05:46:20.347Z,77.06
2017-10-17T05:47:30.748Z,77.15
2017-10-17T05:48:40.843Z,77.25
2017-10-17T05:49:50.917Z,77.44
2017-10-17T05:51:00.989Z,77.25
2017-10-17T05:52:11.399Z,77.06
2017-10-17T05:53:22.575Z,77.15
2017-10-17T05:54:33.014Z,77.06
2017-10-17T05:55:43.105Z,77.15
2017-10-17T05:56:52.860Z,77.25
2017-10-17T05:58:03.260Z,77.25
2017-10-17T05:59:13.347Z,77.25
2017-10-17T06:00:23.813Z,77.15
2017-10-17T06:01:34.218Z,77.15
2017-10-17T06:02:44.622Z,77.34
2017-10-17T06:03:54.706Z,77.06
2017-10-17T06:05:04.779Z,76.96
2017-10-17T06:06:14.856Z,76.96
2017-10-17T06:07:24.939Z,76.96
2017-10-17T06:08:35.345Z,77.06
2017-10-17T06:09:45.737Z,76.96
2017-10-17T06:10:55.482Z,76.67
2017-10-17T06:12:05.879Z,76.77
2017-10-17T06:13:16.273Z,77.15
2017-10-17T06:14:26.863Z,76.96
2017-10-17T06:15:37.267Z,76.67
2017-10-17T06:16:47.331Z,76.67
2017-10-17T06:17:57.732Z,76.67
2017-10-17T06:19:07.806Z,76.57
2017-10-17T06:20:17.892Z,76.86
2017-10-17T06:21:28.317Z,76.67
2017-10-17T06:22:38.061Z,76.96
2017-10-17T06:23:48.510Z,76.81
2017-10-17T06:24:58.591Z,76.42
2017-10-17T06:26:09.041Z,76.81
2017-10-17T06:27:19.436Z,77
2017-10-17T06:28:29.839Z,77
2017-10-17T06:29:40.259Z,76.42
2017-10-17T06:30:50.655Z,76.81
2017-10-17T06:32:01.059Z,75.85
2017-10-17T06:33:11.457Z,76.04
2017-10-17T06:34:21.853Z,76.23
2017-10-17T06:35:32.245Z,76.18
2017-10-17T06:36:42.641Z,76.27
2017-10-17T06:37:52.715Z,76.18
2017-10-17T06:39:03.146Z,76.37
2017-10-17T06:40:12.892Z,76.18
2017-10-17T06:41:23.354Z,76.18
2017-10-17T06:42:33.425Z,76.18
2017-10-17T06:43:43.824Z,76.27
2017-10-17T06:44:54.233Z,76.37
2017-10-17T06:46:04.307Z,75.79
2017-10-17T06:47:14.775Z,76.4
2017-10-17T06:48:24.852Z,76.27
2017-10-17T06:49:35.241Z,76.21
2017-10-17T06:50:45.345Z,76.5
2017-10-17T06:51:55.767Z,76.21
2017-10-17T06:53:06.178Z,76.21
2017-10-17T06:54:16.567Z,76.21
2017-10-17T06:55:26.305Z,76.4
2017-10-17T06:56:36.375Z,75.83
2017-10-17T06:57:46.792Z,75.93
2017-10-17T06:58:57.260Z,75.96
2017-10-17T07:00:07.001Z,76.06
2017-10-17T07:01:17.086Z,76.15
2017-10-17T07:02:27.524Z,76.44
2017-10-17T07:03:37.952Z,75.77
2017-10-17T07:04:48.343Z,75.87
2017-10-17T07:05:58.751Z,76.15
2017-10-17T07:07:08.829Z,75.96
2017-10-17T07:08:19.237Z,76.25
2017-10-17T07:09:29.642Z,75.68
2017-10-17T07:10:39.759Z,75.39
2017-10-17T07:11:50.174Z,75.81
2017-10-17T07:13:00.579Z,75.62
2017-10-17T07:14:10.993Z,75.71
2017-10-17T07:15:21.375Z,75.62
2017-10-17T07:16:31.776Z,75.81
2017-10-17T07:17:42.179Z,75.62
2017-10-17T07:18:52.590Z,75.75
2017-10-17T07:20:03.022Z,75.71
2017-10-17T07:21:13.439Z,75.65
2017-10-17T07:22:23.525Z,75.65
2017-10-17T07:23:33.933Z,75.56
2017-10-17T07:24:44.365Z,76.04
2017-10-17T07:25:54.790Z,75.46
2017-10-17T07:27:05.238Z,75.56
2017-10-17T07:28:15.694Z,76.04
2017-10-17T07:29:26.127Z,75.95
2017-10-17T07:30:36.554Z,76.04
2017-10-17T07:31:46.301Z,75.85
2017-10-17T07:32:56.683Z,75.95
2017-10-17T07:34:06.747Z,75.75
2017-10-17T07:35:16.844Z,75.65
2017-10-17T07:36:26.907Z,75.7
2017-10-17T07:37:37.308Z,75.7
2017-10-17T07:38:47.716Z,75.89
2017-10-17T07:39:57.468Z,75.7
2017-10-17T07:41:07.544Z,75.5
2017-10-17T07:42:17.934Z,75.7
2017-10-17T07:43:27.674Z,75.31
2017-10-17T07:44:37.745Z,75.21
2017-10-17T07:45:47.881Z,75.31
2017-10-17T07:46:57.984Z,75.7
2017-10-17T07:48:08.384Z,75.25
2017-10-17T07:49:18.149Z,75.25
2017-10-17T07:50:28.553Z,75.45
2017-10-17T07:51:39.007Z,75.45
2017-10-17T07:52:49.406Z,75.25
2017-10-17T07:53:59.794Z,75.35
2017-10-17T07:55:10.200Z,75.25
2017-10-17T07:56:20.281Z,75.45
2017-10-17T07:57:30.745Z,75.06
2017-10-17T07:58:41.157Z,75.25
2017-10-17T07:59:51.576Z,75.38
2017-10-17T08:01:01.648Z,75.35
2017-10-17T08:02:12.041Z,75.54
2017-10-17T08:03:22.495Z,75.87
2017-10-17T08:04:32.575Z,75.73
2017-10-17T08:05:42.988Z,75.87
2017-10-17T08:06:53.064Z,75.77
2017-10-17T08:08:03.458Z,75.87
2017-10-17T08:09:13.916Z,75.48
2017-10-17T08:10:24.334Z,75.48
2017-10-17T08:11:34.745Z,75.57
2017-10-17T08:12:44.831Z,75.48
2017-10-17T08:13:55.230Z,75.48
2017-10-17T08:15:05.709Z,75.52
2017-10-17T08:16:16.149Z,75.32
2017-10-17T08:17:26.548Z,75.32
2017-10-17T08:18:36.629Z,75.42
2017-10-17T08:19:47.032Z,75.23
2017-10-17T08:20:57.447Z,75.52
2017-10-17T08:22:07.545Z,74.85
2017-10-17T08:23:17.963Z,74.85
2017-10-17T08:24:28.365Z,74.6
2017-10-17T08:25:38.784Z,74.65
2017-10-17T08:26:49.196Z,74.69
2017-10-17T08:27:59.612Z,74.79
2017-10-17T08:29:10.023Z,74.79
2017-10-17T08:30:20.457Z,74.5
2017-10-17T08:31:30.849Z,74.88
2017-10-17T08:32:41.000Z,74.88
2017-10-17T08:33:51.439Z,74.79
2017-10-17T08:35:01.182Z,75.02
2017-10-17T08:36:11.590Z,74.82
2017-10-17T08:37:21.669Z,74.44
2017-10-17T08:38:32.080Z,74.82
2017-10-17T08:39:42.485Z,75.75
2017-10-17T08:40:52.910Z,75.27
2017-10-17T08:42:03.380Z,75.37
2017-10-17T08:43:13.806Z,75.37
2017-10-17T08:44:23.940Z,75.17
2017-10-17T08:45:34.040Z,75.46
2017-10-17T08:46:44.491Z,75.37
2017-10-17T08:47:54.912Z,75.27
2017-10-17T08:49:05.316Z,75.84
2017-10-17T08:50:15.464Z,75.94
2017-10-17T08:51:25.540Z,75.37
2017-10-17T08:52:35.956Z,75.37
2017-10-17T08:53:46.061Z,74.88
2017-10-17T08:54:56.153Z,75.37
2017-10-17T08:56:06.629Z,75.37
2017-10-17T08:57:17.047Z,75.84
2017-10-17T08:58:27.143Z,75.84
2017-10-17T08:59:37.568Z,76.14
2017-10-17T09:00:47.994Z,76.14
2017-10-17T09:01:58.463Z,75.9
2017-10-17T09:03:08.874Z,76.09
2017-10-17T09:04:18.954Z,75.9
2017-10-17T09:05:29.071Z,76
2017-10-17T09:06:39.504Z,76.19
2017-10-17T09:07:49.961Z,76.09
2017-10-17T09:09:00.368Z,76.15
2017-10-17T09:10:10.795Z,76.19
2017-10-17T09:11:21.206Z,76.39
2017-10-17T09:12:31.630Z,75.81
2017-10-17T09:13:42.075Z,75.9
2017-10-17T09:14:52.185Z,75.81
2017-10-17T09:16:02.609Z,76
2017-10-17T09:17:12.721Z,75.71
2017-10-17T09:18:23.139Z,75.32
2017-10-17T09:19:33.608Z,75.27
2017-10-17T09:20:43.691Z,75.27
2017-10-17T09:21:54.084Z,75.17
2017-10-17T09:23:04.254Z,74.69
2017-10-17T09:24:14.797Z,74.63
2017-10-17T09:25:25.264Z,74.73
2017-10-17T09:26:35.684Z,75.56
2017-10-17T09:27:45.775Z,75.46
2017-10-17T09:28:55.846Z,75.46
2017-10-17T09:30:05.931Z,75.46
2017-10-17T09:31:16.060Z,75.21
2017-10-17T09:32:26.142Z,74.63
2017-10-17T09:33:36.224Z,74.63
2017-10-17T09:34:46.630Z,74.82
2017-10-17T09:35:56.744Z,74.82
2017-10-17T09:37:07.208Z,74.82
2017-10-17T09:38:17.631Z,74.92
2017-10-17T09:39:28.037Z,74.48
2017-10-17T09:40:38.853Z,74.76
2017-10-17T09:41:49.265Z,74.86
2017-10-17T09:42:59.462Z,74.76
2017-10-17T09:44:09.898Z,74.57
2017-10-17T09:45:20.340Z,74.38
2017-10-17T09:46:30.423Z,74.38
2017-10-17T09:47:40.521Z,74.86
2017-10-17T09:48:50.992Z,74.86
2017-10-17T09:50:01.405Z,74.9
2017-10-17T09:51:11.838Z,74.96
2017-10-17T09:52:22.258Z,74.86
2017-10-17T09:53:32.705Z,74.8
2017-10-17T09:54:43.152Z,74.67
2017-10-17T09:55:53.567Z,74.9
2017-10-17T09:57:03.994Z,74.8
2017-10-17T09:58:14.084Z,74.99
2017-10-17T09:59:24.520Z,74.8
2017-10-17T10:00:35.000Z,75.09
2017-10-17T10:01:45.426Z,75.03
2017-10-17T10:02:55.519Z,74.45
2017-10-17T10:04:05.966Z,74.84
2017-10-17T10:05:16.067Z,74.93
2017-10-17T10:06:26.529Z,74.93
2017-10-17T10:07:36.622Z,75.03
2017-10-17T10:08:47.046Z,74.93
2017-10-17T10:09:57.461Z,74.65
2017-10-17T10:11:07.879Z,74.93
2017-10-17T10:12:18.309Z,75.03
2017-10-17T10:13:28.737Z,74.84
2017-10-17T10:14:39.160Z,74.65
2017-10-17T10:15:49.259Z,74.93
2017-10-17T10:16:59.710Z,74.84
2017-10-17T10:18:10.171Z,74.93
2017-10-17T10:19:20.601Z,74.84
2017-10-17T10:20:31.027Z,74.55
2017-10-17T10:21:41.092Z,74.74
2017-10-17T10:22:51.581Z,74.93
2017-10-17T10:24:02.009Z,75.03
2017-10-17T10:25:12.442Z,74.45
2017-10-17T10:26:22.530Z,74.84
2017-10-17T10:27:32.946Z,74.97
2017-10-17T10:28:43.355Z,74.49
2017-10-17T10:29:53.443Z,74.78
2017-10-17T10:31:03.875Z,74.49
2017-10-17T10:32:14.285Z,74.97
2017-10-17T10:33:24.684Z,74.68
2017-10-17T10:34:35.100Z,74.68
2017-10-17T10:35:45.521Z,74.97
2017-10-17T10:36:55.985Z,74.97
2017-10-17T10:38:06.401Z,74.49
2017-10-17T10:39:16.497Z,74.3
2017-10-17T10:40:26.588Z,74.4
2017-10-17T10:41:37.023Z,74.49
2017-10-17T10:42:47.741Z,74.43
2017-10-17T10:43:57.836Z,73.66
2017-10-17T10:45:08.245Z,74.14
2017-10-17T10:46:17.673Z,74.14
2017-10-17T10:47:28.094Z,73.31
2017-10-17T10:48:38.557Z,73.5
2017-10-17T10:49:48.313Z,73.6
2017-10-17T10:50:58.711Z,73.63
2017-10-17T10:52:08.796Z,74.18
2017-10-17T10:53:19.202Z,74.57
2017-10-17T10:54:29.657Z,74.91
2017-10-17T10:55:40.064Z,76.13
2017-10-17T10:56:50.475Z,76.32
2017-10-17T10:58:00.213Z,76.67
2017-10-17T10:59:10.325Z,76.67
2017-10-17T11:00:20.797Z,76.76
2017-10-17T11:01:31.210Z,76.73
2017-10-17T11:02:41.657Z,76.34
2017-10-17T11:03:51.729Z,75.61
2017-10-17T11:05:01.805Z,74.97
2017-10-17T11:06:12.263Z,74.58
2017-10-17T11:07:22.680Z,74.33
2017-10-17T11:08:33.101Z,74.43
2017-10-17T11:09:43.195Z,74.82
2017-10-17T11:10:53.632Z,74.52
2017-10-17T11:12:04.029Z,74.82
2017-10-17T11:13:14.431Z,75.07
2017-10-17T11:14:24.836Z,74.58
2017-10-17T11:15:34.918Z,74.58
2017-10-17T11:16:45.007Z,74.97
2017-10-17T11:17:55.455Z,74.91
2017-10-17T11:19:05.562Z,74.88
2017-10-17T11:20:15.967Z,75.01
2017-10-17T11:21:26.395Z,74.91
2017-10-17T11:22:36.475Z,75.2
2017-10-17T11:23:46.940Z,74.91
2017-10-17T11:24:57.365Z,74.72
2017-10-17T11:26:07.781Z,75.1
2017-10-17T11:27:18.184Z,74.66
2017-10-17T11:28:28.609Z,74.85
2017-10-17T11:29:39.098Z,74.57
2017-10-17T11:30:48.849Z,74.57
2017-10-17T11:31:58.942Z,75.05
2017-10-17T11:33:09.378Z,75.14
2017-10-17T11:34:19.797Z,75.14
2017-10-17T11:35:30.261Z,74.76
2017-10-17T11:36:40.676Z,74.76
2017-10-17T11:37:51.130Z,74.79
2017-10-17T11:39:01.573Z,74.69
2017-10-17T11:40:11.986Z,74.6
2017-10-17T11:41:21.824Z,74.79
2017-10-17T11:42:32.237Z,74.89
2017-10-17T11:43:42.652Z,74.69
2017-10-17T11:44:53.101Z,74.93
2017-10-17T11:46:03.548Z,75.18
2017-10-17T11:47:13.966Z,74.64
2017-10-17T11:48:24.392Z,74.83
2017-10-17T11:49:34.809Z,74.73
2017-10-17T11:50:44.892Z,74.83
2017-10-17T11:51:55.338Z,75.02
2017-10-17T11:53:05.816Z,75.31
2017-10-17T11:54:16.298Z,75.12
2017-10-17T11:55:26.718Z,75.16
2017-10-17T11:56:37.131Z,74.77
2017-10-17T11:57:47.212Z,75.16
2017-10-17T11:58:57.351Z,75.16
2017-10-17T12:00:07.769Z,74.87
2017-10-17T12:01:18.194Z,74.87
2017-10-17T12:02:28.591Z,75.29
2017-10-17T12:03:39.017Z,75.1
2017-10-17T12:04:49.112Z,74.9
2017-10-17T12:05:59.546Z,75.2
2017-10-17T12:07:09.968Z,75
2017-10-17T12:08:20.395Z,75.1
2017-10-17T12:09:30.790Z,74.9
2017-10-17T12:10:40.952Z,75.1
2017-10-17T12:11:51.366Z,75.2
2017-10-17T12:13:01.459Z,75
2017-10-17T12:14:11.878Z,74.9
2017-10-17T12:15:22.317Z,75.2
2017-10-17T12:16:32.449Z,75.2
2017-10-17T12:17:42.860Z,74.81
2017-10-17T12:18:53.276Z,75.13
2017-10-17T12:20:03.705Z,75.13
2017-10-17T12:21:14.168Z,75.04
2017-10-17T12:22:24.668Z,74.98
2017-10-17T12:23:35.091Z,75.07
2017-10-17T12:24:45.524Z,75.07
2017-10-17T12:25:55.961Z,74.88
2017-10-17T12:27:06.379Z,74.98
2017-10-17T12:28:16.833Z,74.98
2017-10-17T12:29:26.263Z,74.98
2017-10-17T12:30:36.680Z,75.17
2017-10-17T12:31:47.093Z,75.27
2017-10-17T12:32:57.193Z,75.17
2017-10-17T12:34:07.652Z,75.27
2017-10-17T12:35:17.419Z,75.37
2017-10-17T12:36:27.844Z,75.75
2017-10-17T12:37:38.272Z,76.33
2017-10-17T12:38:48.696Z,75.85
2017-10-17T12:39:59.138Z,75.95
2017-10-17T12:41:09.556Z,75.85
2017-10-17T12:42:19.963Z,75.37
2017-10-17T12:43:30.048Z,76.04
2017-10-17T12:44:40.461Z,75.95
2017-10-17T12:45:50.258Z,76.04
2017-10-17T12:47:00.693Z,76.04
2017-10-17T12:48:11.138Z,76.04
2017-10-17T12:49:21.561Z,76.08
2017-10-17T12:50:31.969Z,75.89
2017-10-17T12:51:42.064Z,75.98
2017-10-17T12:52:52.482Z,75.98
2017-10-17T12:54:02.890Z,75.89
2017-10-17T12:55:13.315Z,75.98
2017-10-17T12:56:23.745Z,75.98
2017-10-17T12:57:34.220Z,75.79
2017-10-17T12:58:44.634Z,75.98
2017-10-17T12:59:55.285Z,76.08
2017-10-17T13:01:05.698Z,76.12
2017-10-17T13:02:16.128Z,76.02
2017-10-17T13:03:26.273Z,75.73
2017-10-17T13:04:37.934Z,75.83
2017-10-17T13:05:48.016Z,75.92
2017-10-17T13:06:58.428Z,75.92
2017-10-17T13:08:08.516Z,75.83
2017-10-17T13:09:18.920Z,76.12
2017-10-17T13:10:29.333Z,75.96
2017-10-17T13:11:39.425Z,75.96
2017-10-17T13:12:49.199Z,75.87
2017-10-17T13:13:59.628Z,76.15
2017-10-17T13:15:10.075Z,76.45
2017-10-17T13:16:20.487Z,76.54
2017-10-17T13:17:30.911Z,76.25
2017-10-17T13:18:41.347Z,76.54
2017-10-17T13:19:51.775Z,76.54
2017-10-17T13:21:01.527Z,76.35
2017-10-17T13:22:11.949Z,76.54
2017-10-17T13:23:22.361Z,76.15
2017-10-17T13:24:32.456Z,76.25
2017-10-17T13:25:42.876Z,76.68
2017-10-17T13:26:53.366Z,76.45
2017-10-17T13:28:03.786Z,76.58
2017-10-17T13:29:14.246Z,76.78
2017-10-17T13:30:24.688Z,76.54
2017-10-17T13:31:35.107Z,76.64
2017-10-17T13:32:45.536Z,76.45
2017-10-17T13:33:56.000Z,76.64
2017-10-17T13:35:06.413Z,77.06
2017-10-17T13:36:16.186Z,76.83
2017-10-17T13:37:26.626Z,76.87
2017-10-17T13:38:37.093Z,77.06
2017-10-17T13:39:47.198Z,76.78
2017-10-17T13:40:57.617Z,76.97
2017-10-17T13:42:08.056Z,77.06
2017-10-17T13:43:19.497Z,77.45
2017-10-17T13:44:30.865Z,77.06
2017-10-17T13:45:40.967Z,77.36
2017-10-17T13:46:51.398Z,77.03
2017-10-17T13:48:01.836Z,77.12
2017-10-17T13:49:12.259Z,77.32
2017-10-17T13:50:22.722Z,77.22
2017-10-17T13:51:33.150Z,77.7
2017-10-17T13:52:43.262Z,77.7
2017-10-17T13:53:53.695Z,77.61
2017-10-17T13:55:03.803Z,76.83
2017-10-17T13:56:14.305Z,77.03
2017-10-17T13:57:24.726Z,77.22
2017-10-17T13:58:35.154Z,77.03
2017-10-17T13:59:45.593Z,77.32
2017-10-17T14:00:56.027Z,77.61
2017-10-17T14:02:06.112Z,76.83
2017-10-17T14:03:16.566Z,76.87
2017-10-17T14:04:26.992Z,77.22
2017-10-17T14:05:37.428Z,77.65
2017-10-17T14:06:47.851Z,77.26
2017-10-17T14:07:57.999Z,77.65
2017-10-17T14:09:08.110Z,77.7
2017-10-17T14:10:18.534Z,78.09
2017-10-17T14:11:28.969Z,77.8
2017-10-17T14:12:39.399Z,77.8
2017-10-17T14:13:51.599Z,77.8
2017-10-17T14:15:02.025Z,77.8
2017-10-17T14:16:12.474Z,78.29
2017-10-17T14:17:22.925Z,77.96
2017-10-17T14:18:33.374Z,77.76
2017-10-17T14:19:43.199Z,77.8
2017-10-17T14:20:53.634Z,77.61
2017-10-17T14:22:04.060Z,78.19
2017-10-17T14:23:14.492Z,78.15
2017-10-17T14:24:24.583Z,77.86
2017-10-17T14:25:35.045Z,77.96
2017-10-17T14:26:45.522Z,77.96
2017-10-17T14:27:55.937Z,78.25
2017-10-17T14:29:06.034Z,78.34
2017-10-17T14:30:16.450Z,78.25
2017-10-17T14:31:26.940Z,77.96
2017-10-17T14:32:37.031Z,78.54
2017-10-17T14:33:47.446Z,78.05
2017-10-17T14:34:57.549Z,78.54
2017-10-17T14:36:07.987Z,78.21
2017-10-17T14:37:18.535Z,78.31
2017-10-17T14:38:28.944Z,78.31
2017-10-17T14:39:39.387Z,78.59
2017-10-17T14:40:49.476Z,78.31
2017-10-17T14:41:59.910Z,78.21
2017-10-17T14:43:10.353Z,78.02
2017-10-17T14:44:20.775Z,78.79
2017-10-17T14:45:31.199Z,78.56
2017-10-17T14:46:41.624Z,78.56
2017-10-17T14:47:51.722Z,79.24
2017-10-17T14:49:01.804Z,79.04
2017-10-17T14:50:11.554Z,79.24
2017-10-17T14:51:21.972Z,79.1
2017-10-17T14:52:32.071Z,78.91
2017-10-17T14:53:42.173Z,78.75
2017-10-17T14:54:52.595Z,78.71
2017-10-17T14:56:02.680Z,78.66
2017-10-17T14:57:12.776Z,78.52
2017-10-17T14:58:22.858Z,78.71
2017-10-17T14:59:33.277Z,78.71
2017-10-17T15:00:43.430Z,78.81
2017-10-17T15:01:53.861Z,79.1
2017-10-17T15:03:04.272Z,79
2017-10-17T15:04:14.396Z,79.2
2017-10-17T15:05:24.477Z,78.77
2017-10-17T15:06:34.883Z,79.54
2017-10-17T15:07:45.008Z,79.83
2017-10-17T15:08:55.437Z,79.41
2017-10-17T15:10:05.852Z,79.22
2017-10-17T15:11:16.316Z,79.12
2017-10-17T15:12:26.727Z,79.12
2017-10-17T15:13:37.147Z,79.22
2017-10-17T15:14:47.605Z,79.5
2017-10-17T15:15:57.704Z,79.27
2017-10-17T15:17:07.871Z,79.27
2017-10-17T15:18:18.280Z,79.56
2017-10-17T15:19:28.718Z,79.75
2017-10-17T15:20:38.812Z,79.85
2017-10-17T15:21:49.248Z,79.75
2017-10-17T15:22:59.705Z,79.81
2017-10-17T15:24:10.112Z,79.81
2017-10-17T15:25:20.201Z,79.81
2017-10-17T15:26:30.637Z,79.81
2017-10-17T15:27:41.048Z,79.91
2017-10-17T15:28:51.507Z,79.33
2017-10-17T15:30:01.942Z,79.91
2017-10-17T15:31:12.362Z,79.72
2017-10-17T15:32:22.778Z,79.58
2017-10-17T15:33:33.244Z,79.77
2017-10-17T15:34:43.376Z,79.77
2017-10-17T15:35:53.799Z,79.58
2017-10-17T15:37:04.233Z,79.77
2017-10-17T15:38:14.309Z,79.49
2017-10-17T15:39:24.719Z,79.77